Commerce Township, Michigan
Current Conditions -  °F | °C
As of 7:53 PM on Wednesday 22 Oct 2014 (Local Time) from KPTK Reporting Station
Broken Clouds Broken Clouds  
Wind Chill: 42°   Ceiling: 2800
Heat Index: 46°   Visibility: 10mi
Dew Point: 39°   Wind: 8mph
Humidity: 76%   Direction: 340°NNW
Pressure: 30.28"   Gusts: NA
Location:  42.59°N, 83.48°W
Report Text: KPTK 222353Z 34007KT 10SM BKN028 08/04 A3028 RMK AO2 SLP261 T00780039 10117 20072 55001
Loading
Personal Weather Stations






























Interactive Weather Map
Tropical Storm Tracking
New forecast layout! Learn more

10-Day Weather Forecast

Advertisements
Track Severe Weather on mobile